Time;durP1;ratioP1;P1;durP2;ratioP2;P2;SDS_P1;SDS_P2;PMS_P1;PMS_P2;Temp;Humidity;BMP_temperature;BMP_pressure;BME280_temperature;BME280_humidity;BME280_pressure;Samples;Min_cycle;Max_cycle;Signal;HPM_P1;HPM_P2
2020/12/11 00:01:32;;;;;;;;;;;4.50;72.30;;;;;;5010427;28;19936;-43
2020/12/11 00:03:58;;;;;;;;;;;4.50;72.30;;;;;;5009001;28;20692;-43
2020/12/11 00:06:25;;;;;;;;;;;4.50;72.40;;;;;;5009416;28;19929;-45
2020/12/11 00:08:51;;;;;;;;;;;4.60;72.30;;;;;;5008716;28;20267;-47
2020/12/11 00:11:18;;;;;;;;;;;4.50;72.20;;;;;;5008659;28;19933;-44
2020/12/11 00:13:46;;;;;;;;;;;4.50;72.20;;;;;;5009598;28;20273;-45
2020/12/11 00:16:12;;;;;;;;;;;4.50;71.70;;;;;;5005473;28;19925;-45
2020/12/11 00:18:38;;;;;;;;;;;4.50;71.80;;;;;;5011911;28;23748;-45
2020/12/11 00:21:05;;;;;;;;;;;4.50;71.90;;;;;;5009595;28;19925;-47
2020/12/11 00:23:31;;;;;;;;;;;4.50;71.90;;;;;;5010670;28;20496;-48
2020/12/11 00:26:01;;;;;;;;;;;4.50;71.90;;;;;;5007694;28;20360;-46
2020/12/11 00:28:28;;;;;;;;;;;4.50;71.80;;;;;;4996820;28;19932;-44
2020/12/11 00:30:55;;;;;;;;;;;4.50;71.90;;;;;;5008132;28;20021;-43
2020/12/11 00:33:21;;;;;;;;;;;4.50;72.00;;;;;;5010385;28;19929;-46
2020/12/11 00:35:49;;;;;;;;;;;4.40;72.00;;;;;;5013446;28;19925;-45
2020/12/11 00:38:16;;;;;;;;;;;4.40;71.90;;;;;;5010119;28;19931;-44
2020/12/11 00:40:42;;;;;;;;;;;4.40;72.00;;;;;;5009050;28;19929;-44
2020/12/11 00:43:08;;;;;;;;;;;4.40;72.20;;;;;;5007136;28;19929;-48
2020/12/11 00:45:34;;;;;;;;;;;4.50;72.10;;;;;;5005527;28;19929;-43
2020/12/11 00:48:01;;;;;;;;;;;4.40;71.90;;;;;;5008720;28;19955;-46
2020/12/11 00:50:27;;;;;;;;;;;4.50;71.90;;;;;;5008246;28;19925;-45
2020/12/11 00:52:53;;;;;;;;;;;4.50;71.90;;;;;;5011743;28;19933;-43
2020/12/11 00:55:22;;;;;;;;;;;4.50;71.80;;;;;;5009142;28;20365;-46
2020/12/11 00:57:48;;;;;;;;;;;4.50;72.00;;;;;;5024800;28;19933;-48
2020/12/11 01:00:15;;;;;;;;;;;4.50;72.10;;;;;;5006654;28;19936;-46
2020/12/11 01:02:42;;;;;;;;;;;4.50;71.90;;;;;;5007772;28;20461;-46
2020/12/11 01:05:08;;;;;;;;;;;4.50;71.70;;;;;;5025289;28;19928;-44
2020/12/11 01:07:34;;;;;;;;;;;4.50;71.60;;;;;;4990446;28;20339;-46
2020/12/11 01:10:00;;;;;;;;;;;4.50;71.40;;;;;;5007467;28;19934;-46
2020/12/11 01:12:27;;;;;;;;;;;4.50;71.40;;;;;;5013927;28;19929;-47
2020/12/11 01:14:53;;;;;;;;;;;4.50;71.50;;;;;;5008397;28;20385;-48
2020/12/11 01:17:19;;;;;;;;;;;4.50;71.50;;;;;;5009323;28;19925;-46
2020/12/11 01:19:47;;;;;;;;;;;4.50;71.60;;;;;;5008177;28;19936;-47
2020/12/11 01:22:13;;;;;;;;;;;4.50;71.50;;;;;;5009065;28;19941;-44
2020/12/11 01:24:40;;;;;;;;;;;4.50;71.60;;;;;;5009852;28;19925;-45
2020/12/11 01:27:06;;;;;;;;;;;4.60;71.70;;;;;;5006368;28;19930;-44
2020/12/11 01:29:32;;;;;;;;;;;4.60;71.50;;;;;;5008451;28;20384;-47
2020/12/11 01:31:58;;;;;;;;;;;4.50;71.30;;;;;;5007634;28;19925;-44
2020/12/11 01:34:26;;;;;;;;;;;4.50;71.10;;;;;;5010106;28;20020;-48
2020/12/11 01:36:52;;;;;;;;;;;4.50;71.30;;;;;;5007706;28;20297;-46
2020/12/11 01:39:18;;;;;;;;;;;4.50;71.40;;;;;;5009604;28;19936;-48
2020/12/11 01:41:44;;;;;;;;;;;4.50;71.30;;;;;;5007015;28;19925;-47
2020/12/11 01:44:10;;;;;;;;;;;4.50;71.40;;;;;;5010458;28;19929;-46
2020/12/11 01:46:40;;;;;;;;;;;4.50;71.40;;;;;;5009037;28;19933;-45
2020/12/11 01:49:08;;;;;;;;;;;4.50;71.30;;;;;;5005135;28;19933;-44
2020/12/11 01:51:37;;;;;;;;;;;4.40;71.40;;;;;;5006607;28;19928;-47
2020/12/11 01:54:05;;;;;;;;;;;4.40;71.70;;;;;;5007201;28;20039;-47
2020/12/11 01:56:39;;;;;;;;;;;4.40;71.70;;;;;;5009569;28;19929;-46
2020/12/11 01:59:07;;;;;;;;;;;4.40;71.80;;;;;;5007152;28;19926;-46
2020/12/11 02:01:34;;;;;;;;;;;4.40;71.80;;;;;;5010007;28;19933;-43
2020/12/11 02:04:04;;;;;;;;;;;4.50;71.70;;;;;;5009299;28;20610;-44
2020/12/11 02:06:30;;;;;;;;;;;4.50;71.80;;;;;;5003008;28;19935;-47
2020/12/11 02:08:56;;;;;;;;;;;4.50;71.50;;;;;;5013230;28;19929;-47
2020/12/11 02:11:23;;;;;;;;;;;4.50;71.30;;;;;;5007134;28;19979;-45
2020/12/11 02:13:50;;;;;;;;;;;4.50;71.30;;;;;;5007485;28;19925;-45
2020/12/11 02:16:21;;;;;;;;;;;4.50;71.50;;;;;;5007984;28;19929;-45
2020/12/11 02:18:48;;;;;;;;;;;4.50;71.60;;;;;;5006395;28;20399;-46
2020/12/11 02:21:14;;;;;;;;;;;4.50;71.60;;;;;;5009147;28;19926;-44
2020/12/11 02:23:44;;;;;;;;;;;4.50;71.60;;;;;;5006674;28;19933;-45
2020/12/11 02:26:11;;;;;;;;;;;4.50;71.50;;;;;;5007562;28;19936;-48
2020/12/11 02:28:37;;;;;;;;;;;4.50;71.40;;;;;;5021335;28;19925;-46
2020/12/11 02:31:03;;;;;;;;;;;4.50;71.50;;;;;;5005675;28;19947;-46
2020/12/11 02:33:30;;;;;;;;;;;4.50;71.40;;;;;;5008372;28;20628;-46
2020/12/11 02:35:56;;;;;;;;;;;4.50;71.30;;;;;;5007969;28;19937;-44
2020/12/11 02:38:23;;;;;;;;;;;4.50;71.40;;;;;;5006541;28;19933;-45
2020/12/11 02:40:53;;;;;;;;;;;4.50;71.50;;;;;;5007317;28;19931;-46
2020/12/11 02:43:22;;;;;;;;;;;4.50;71.60;;;;;;5007988;28;19952;-46
2020/12/11 02:45:50;;;;;;;;;;;4.50;71.80;;;;;;5007453;28;19929;-47
2020/12/11 02:48:17;;;;;;;;;;;4.50;71.90;;;;;;5007037;28;19983;-47
2020/12/11 02:50:44;;;;;;;;;;;4.50;71.70;;;;;;5005292;28;19932;-46
2020/12/11 02:53:10;;;;;;;;;;;4.50;71.70;;;;;;5006744;28;19925;-45
2020/12/11 02:55:37;;;;;;;;;;;4.50;71.70;;;;;;5008227;28;19940;-48
2020/12/11 02:58:03;;;;;;;;;;;4.50;71.60;;;;;;5005178;28;19956;-48
2020/12/11 03:00:30;;;;;;;;;;;4.50;71.70;;;;;;5005466;28;19947;-44
2020/12/11 03:02:56;;;;;;;;;;;4.50;71.80;;;;;;5002252;28;20917;-45
2020/12/11 03:05:22;;;;;;;;;;;4.50;71.90;;;;;;5006629;28;19933;-49
2020/12/11 03:07:48;;;;;;;;;;;4.50;72.10;;;;;;5009471;28;20306;-45
2020/12/11 03:10:14;;;;;;;;;;;4.50;72.10;;;;;;5007755;28;20870;-46
2020/12/11 03:12:40;;;;;;;;;;;4.40;72.20;;;;;;5007633;28;20381;-45
2020/12/11 03:15:06;;;;;;;;;;;4.40;72.40;;;;;;5018099;28;21213;-45
2020/12/11 03:17:32;;;;;;;;;;;4.50;72.30;;;;;;5004268;28;19930;-44
2020/12/11 03:19:59;;;;;;;;;;;4.40;72.20;;;;;;5006924;28;19925;-45
2020/12/11 03:22:25;;;;;;;;;;;4.40;72.40;;;;;;5006581;28;19929;-45
2020/12/11 03:24:51;;;;;;;;;;;4.40;72.50;;;;;;5010967;28;19929;-44
2020/12/11 03:27:17;;;;;;;;;;;4.40;72.40;;;;;;5007983;28;19968;-45
2020/12/11 03:29:43;;;;;;;;;;;4.40;72.40;;;;;;5003257;28;19929;-48
2020/12/11 03:32:09;;;;;;;;;;;4.40;72.40;;;;;;5006520;28;19940;-47
2020/12/11 03:34:36;;;;;;;;;;;4.40;72.40;;;;;;5008597;28;19929;-47
2020/12/11 03:37:02;;;;;;;;;;;4.40;72.50;;;;;;5011129;28;19926;-46
2020/12/11 03:39:28;;;;;;;;;;;4.40;72.60;;;;;;5007622;28;20012;-45
2020/12/11 03:41:55;;;;;;;;;;;4.30;72.60;;;;;;5010788;28;19929;-48
2020/12/11 03:44:21;;;;;;;;;;;4.30;72.60;;;;;;5010818;28;19929;-45
2020/12/11 03:46:47;;;;;;;;;;;4.30;72.60;;;;;;5011377;28;20808;-44
2020/12/11 03:49:14;;;;;;;;;;;4.30;72.70;;;;;;5010580;28;19926;-46
2020/12/11 03:51:40;;;;;;;;;;;4.30;72.70;;;;;;5006910;28;20312;-44
2020/12/11 03:54:06;;;;;;;;;;;4.30;72.70;;;;;;5008807;28;19936;-49
2020/12/11 03:56:32;;;;;;;;;;;4.30;72.70;;;;;;5013770;28;19936;-43
2020/12/11 03:58:59;;;;;;;;;;;4.30;72.60;;;;;;5007577;28;19933;-44
2020/12/11 04:01:25;;;;;;;;;;;4.30;72.60;;;;;;5008934;28;19940;-44
2020/12/11 04:03:52;;;;;;;;;;;4.30;72.60;;;;;;5009357;28;20365;-44
2020/12/11 04:06:18;;;;;;;;;;;4.30;72.50;;;;;;5011279;28;19929;-47
2020/12/11 04:08:45;;;;;;;;;;;4.30;72.40;;;;;;5010668;28;19925;-47
2020/12/11 04:11:12;;;;;;;;;;;4.30;72.60;;;;;;5010336;28;19925;-45
2020/12/11 04:13:38;;;;;;;;;;;4.30;72.60;;;;;;5009484;28;19939;-46
2020/12/11 04:16:05;;;;;;;;;;;4.30;72.70;;;;;;5009784;28;19930;-48
2020/12/11 04:18:31;;;;;;;;;;;4.30;72.70;;;;;;5007036;28;20771;-47
2020/12/11 04:20:57;;;;;;;;;;;4.30;72.60;;;;;;5009882;28;20476;-46
2020/12/11 04:23:24;;;;;;;;;;;4.30;72.70;;;;;;5009496;28;19925;-45
2020/12/11 04:25:52;;;;;;;;;;;4.30;72.60;;;;;;5010031;28;19925;-45
2020/12/11 04:28:18;;;;;;;;;;;4.30;72.30;;;;;;5008380;28;20416;-47
2020/12/11 04:30:45;;;;;;;;;;;4.20;72.40;;;;;;5011715;28;19926;-44
2020/12/11 04:33:11;;;;;;;;;;;4.20;72.50;;;;;;5008267;28;19933;-46
2020/12/11 04:35:38;;;;;;;;;;;4.20;72.40;;;;;;5008053;28;19933;-47
2020/12/11 04:38:04;;;;;;;;;;;4.20;72.50;;;;;;5008112;28;20303;-48
2020/12/11 04:40:30;;;;;;;;;;;4.20;72.70;;;;;;5011337;28;19932;-47
2020/12/11 04:42:58;;;;;;;;;;;4.20;72.80;;;;;;5014287;28;19943;-45
2020/12/11 04:45:25;;;;;;;;;;;4.20;72.70;;;;;;5007078;28;19929;-47
2020/12/11 04:47:55;;;;;;;;;;;4.20;72.70;;;;;;5005289;28;19925;-46
2020/12/11 04:50:21;;;;;;;;;;;4.20;72.60;;;;;;5009093;28;19929;-43
2020/12/11 04:52:48;;;;;;;;;;;4.20;72.60;;;;;;5009637;28;19930;-45
2020/12/11 04:55:15;;;;;;;;;;;4.10;72.60;;;;;;5008967;28;19936;-45
2020/12/11 04:57:44;;;;;;;;;;;4.10;72.60;;;;;;5006289;28;19933;-43
2020/12/11 05:00:10;;;;;;;;;;;4.10;72.60;;;;;;5008248;28;20384;-43
2020/12/11 05:02:39;;;;;;;;;;;4.10;72.60;;;;;;5012125;28;20354;-46
2020/12/11 05:05:05;;;;;;;;;;;4.10;72.70;;;;;;5009392;28;19926;-46
2020/12/11 05:07:31;;;;;;;;;;;4.10;72.70;;;;;;5006821;28;19933;-46
2020/12/11 05:09:57;;;;;;;;;;;4.10;72.50;;;;;;5005497;28;19929;-43
2020/12/11 05:12:24;;;;;;;;;;;4.10;72.60;;;;;;5009318;28;19931;-45
2020/12/11 05:14:56;;;;;;;;;;;4.10;72.70;;;;;;5002769;28;19941;-46
2020/12/11 05:17:25;;;;;;;;;;;4.10;72.70;;;;;;5007389;28;20395;-45
2020/12/11 05:19:52;;;;;;;;;;;4.00;72.60;;;;;;5006010;28;19929;-46
2020/12/11 05:22:19;;;;;;;;;;;4.00;72.50;;;;;;5008938;28;19941;-45
2020/12/11 05:24:50;;;;;;;;;;;4.00;72.60;;;;;;5022609;28;19936;-45
2020/12/11 05:27:36;;;;;;;;;;;3.90;72.70;;;;;;5010616;28;19925;-44
2020/12/11 05:30:12;;;;;;;;;;;3.90;72.80;;;;;;4996421;28;19926;-46
2020/12/11 05:32:46;;;;;;;;;;;3.90;72.70;;;;;;4987009;28;19933;-46
2020/12/11 05:35:18;;;;;;;;;;;3.90;72.90;;;;;;4989741;28;19933;-44
2020/12/11 05:37:47;;;;;;;;;;;3.80;73.00;;;;;;5009080;28;19926;-45
2020/12/11 05:40:20;;;;;;;;;;;3.90;73.10;;;;;;5008267;28;19933;-43
2020/12/11 05:43:05;;;;;;;;;;;3.90;73.20;;;;;;5007887;28;19932;-45
2020/12/11 05:45:34;;;;;;;;;;;3.80;73.30;;;;;;5009200;28;19936;-43
2020/12/11 05:48:01;;;;;;;;;;;3.80;73.50;;;;;;5007797;28;20414;-46
2020/12/11 05:50:27;;;;;;;;;;;3.80;73.50;;;;;;5005977;28;19933;-45
2020/12/11 05:52:54;;;;;;;;;;;3.80;73.60;;;;;;5005903;28;19925;-45
2020/12/11 05:55:21;;;;;;;;;;;3.80;73.60;;;;;;5006856;28;19925;-46
2020/12/11 05:57:55;;;;;;;;;;;3.80;73.70;;;;;;5008442;28;19928;-43
2020/12/11 06:00:21;;;;;;;;;;;3.80;73.90;;;;;;5008294;28;19931;-45
2020/12/11 06:02:48;;;;;;;;;;;3.80;73.90;;;;;;5009137;28;19925;-45
2020/12/11 06:05:15;;;;;;;;;;;3.80;73.90;;;;;;5006994;28;19929;-46
2020/12/11 06:07:42;;;;;;;;;;;3.80;74.10;;;;;;5008739;28;19933;-44
2020/12/11 06:10:11;;;;;;;;;;;3.80;74.20;;;;;;5008434;28;19929;-46
2020/12/11 06:12:37;;;;;;;;;;;3.80;74.20;;;;;;5008137;28;19941;-45
2020/12/11 06:15:05;;;;;;;;;;;3.80;74.20;;;;;;5007280;28;19929;-45
2020/12/11 06:17:32;;;;;;;;;;;3.80;74.20;;;;;;5008414;28;19932;-45
2020/12/11 06:20:00;;;;;;;;;;;3.90;74.10;;;;;;5009420;28;19931;-45
2020/12/11 06:22:26;;;;;;;;;;;3.90;74.20;;;;;;5007574;28;19930;-45
2020/12/11 06:24:52;;;;;;;;;;;3.90;74.20;;;;;;5006114;28;20420;-45
2020/12/11 06:27:31;;;;;;;;;;;3.90;74.20;;;;;;5008695;28;19936;-45
2020/12/11 06:29:57;;;;;;;;;;;3.90;74.30;;;;;;5007243;28;19928;-46
2020/12/11 06:32:33;;;;;;;;;;;3.90;74.40;;;;;;5007653;28;19940;-44
2020/12/11 06:35:09;;;;;;;;;;;3.90;74.50;;;;;;5003238;28;20329;-44
2020/12/11 06:37:36;;;;;;;;;;;3.90;74.50;;;;;;5007445;28;20270;-43
2020/12/11 06:40:02;;;;;;;;;;;3.90;74.50;;;;;;5006355;28;19944;-44
2020/12/11 06:42:34;;;;;;;;;;;4.00;74.50;;;;;;5008532;28;19925;-45
2020/12/11 06:45:20;;;;;;;;;;;4.00;74.50;;;;;;5007583;28;20387;-44
2020/12/11 06:47:56;;;;;;;;;;;4.00;74.60;;;;;;5008283;28;19935;-45
2020/12/11 06:50:23;;;;;;;;;;;4.00;74.60;;;;;;5006502;28;19940;-44
2020/12/11 06:52:50;;;;;;;;;;;4.00;74.60;;;;;;5009154;28;20580;-46
2020/12/11 06:55:16;;;;;;;;;;;4.00;74.60;;;;;;5006341;28;19926;-45
2020/12/11 06:57:43;;;;;;;;;;;4.00;74.50;;;;;;5008568;28;20357;-43
2020/12/11 07:00:28;;;;;;;;;;;4.00;74.40;;;;;;5006529;28;19956;-44
2020/12/11 07:03:17;;;;;;;;;;;4.00;74.50;;;;;;5008708;28;20381;-43
2020/12/11 07:05:44;;;;;;;;;;;4.00;74.60;;;;;;5009260;28;19925;-46
2020/12/11 07:08:11;;;;;;;;;;;4.00;74.50;;;;;;5007562;28;20344;-43
2020/12/11 07:10:38;;;;;;;;;;;4.00;74.50;;;;;;5006337;28;19940;-44
2020/12/11 07:13:05;;;;;;;;;;;4.10;74.40;;;;;;5008704;28;19937;-45
2020/12/11 07:15:31;;;;;;;;;;;4.10;74.40;;;;;;5009706;28;19939;-44
2020/12/11 07:17:57;;;;;;;;;;;4.10;74.30;;;;;;5007183;28;19933;-43
2020/12/11 07:20:24;;;;;;;;;;;4.10;74.10;;;;;;5006072;28;19926;-44
2020/12/11 07:22:50;;;;;;;;;;;4.10;74.10;;;;;;5006967;28;19949;-45
2020/12/11 07:25:16;;;;;;;;;;;4.10;74.10;;;;;;5007474;28;19952;-45
2020/12/11 07:27:55;;;;;;;;;;;4.10;74.10;;;;;;5005183;28;20412;-45
2020/12/11 07:30:21;;;;;;;;;;;4.10;74.10;;;;;;5004202;28;19929;-45
2020/12/11 07:32:53;;;;;;;;;;;4.10;74.10;;;;;;5008067;28;19932;-45
2020/12/11 07:35:20;;;;;;;;;;;4.20;74.00;;;;;;5005080;28;19929;-44
2020/12/11 07:37:50;;;;;;;;;;;4.20;73.90;;;;;;5004101;28;19933;-44
2020/12/11 07:40:17;;;;;;;;;;;4.20;73.70;;;;;;5003314;28;19929;-44
2020/12/11 07:42:43;;;;;;;;;;;4.20;73.60;;;;;;5009099;28;19929;-44
2020/12/11 07:45:28;;;;;;;;;;;4.20;73.50;;;;;;5011508;28;20531;-43
2020/12/11 07:47:55;;;;;;;;;;;4.20;73.50;;;;;;5009470;28;19952;-44
2020/12/11 07:50:26;;;;;;;;;;;4.20;73.50;;;;;;5006140;28;19948;-43
2020/12/11 07:52:55;;;;;;;;;;;4.20;73.50;;;;;;4999402;28;19932;-43
2020/12/11 07:55:22;;;;;;;;;;;4.20;73.40;;;;;;5004174;28;19933;-46
2020/12/11 07:57:52;;;;;;;;;;;4.20;73.30;;;;;;5007236;28;19933;-44
2020/12/11 08:00:18;;;;;;;;;;;4.20;73.30;;;;;;5005034;28;19929;-44
2020/12/11 08:02:44;;;;;;;;;;;4.20;73.30;;;;;;5006700;28;19932;-45
2020/12/11 08:05:11;;;;;;;;;;;4.20;73.20;;;;;;5002496;28;19929;-45
2020/12/11 08:07:37;;;;;;;;;;;4.30;73.30;;;;;;5006719;28;19931;-45
2020/12/11 08:10:07;;;;;;;;;;;4.30;73.60;;;;;;5003865;28;19935;-44
2020/12/11 08:12:33;;;;;;;;;;;4.30;73.80;;;;;;5005786;28;19925;-45
2020/12/11 08:15:00;;;;;;;;;;;4.30;73.80;;;;;;5000516;28;19933;-46
2020/12/11 08:17:28;;;;;;;;;;;4.30;73.70;;;;;;5006497;28;19935;-45
2020/12/11 08:20:01;;;;;;;;;;;4.30;73.70;;;;;;5020003;28;19937;-43
2020/12/11 08:22:31;;;;;;;;;;;4.30;73.60;;;;;;5006669;28;19925;-45
2020/12/11 08:24:57;;;;;;;;;;;4.40;73.60;;;;;;5008522;28;19936;-45
2020/12/11 08:27:26;;;;;;;;;;;4.40;73.60;;;;;;5009705;28;19940;-45
2020/12/11 08:30:11;;;;;;;;;;;4.40;73.50;;;;;;5007528;28;19929;-45
2020/12/11 08:32:37;;;;;;;;;;;4.40;73.40;;;;;;5008729;28;19925;-44
2020/12/11 08:35:13;;;;;;;;;;;4.40;73.30;;;;;;5012758;28;19941;-46
2020/12/11 08:37:54;;;;;;;;;;;4.40;73.40;;;;;;5010423;28;19932;-45
2020/12/11 08:40:20;;;;;;;;;;;4.40;73.50;;;;;;5008660;28;19972;-45
2020/12/11 08:43:01;;;;;;;;;;;4.50;73.50;;;;;;5010242;28;19930;-46
2020/12/11 08:45:35;;;;;;;;;;;4.40;73.50;;;;;;5010500;28;20316;-44
2020/12/11 08:50:42;;;;;;;;;;;4.50;73.30;;;;;;5008377;28;20026;-44
2020/12/11 08:53:10;;;;;;;;;;;4.50;73.20;;;;;;5009032;28;19925;-46
2020/12/11 08:55:37;;;;;;;;;;;4.50;73.20;;;;;;5008335;28;19929;-45
2020/12/11 08:58:03;;;;;;;;;;;4.50;73.20;;;;;;5009035;28;19940;-45
2020/12/11 09:00:29;;;;;;;;;;;4.50;73.10;;;;;;5006766;28;19926;-45
2020/12/11 09:02:55;;;;;;;;;;;4.60;73.10;;;;;;5010966;28;19925;-45
2020/12/11 09:05:25;;;;;;;;;;;4.60;73.50;;;;;;5009113;28;20361;-44
2020/12/11 09:07:52;;;;;;;;;;;4.60;73.70;;;;;;5007882;28;22483;-45
2020/12/11 09:10:18;;;;;;;;;;;4.60;73.90;;;;;;5009264;28;19925;-44
2020/12/11 09:12:47;;;;;;;;;;;4.60;74.00;;;;;;5010224;28;19932;-45
2020/12/11 09:15:13;;;;;;;;;;;4.70;74.00;;;;;;5011080;28;19933;-44
2020/12/11 09:17:39;;;;;;;;;;;4.70;73.80;;;;;;5010138;28;19929;-46
2020/12/11 09:20:06;;;;;;;;;;;4.70;73.80;;;;;;5006102;28;20377;-44
2020/12/11 09:22:33;;;;;;;;;;;4.70;73.80;;;;;;5009303;28;20365;-45
2020/12/11 09:24:59;;;;;;;;;;;4.70;73.90;;;;;;5008783;28;19925;-46
2020/12/11 09:27:25;;;;;;;;;;;4.60;73.80;;;;;;5008888;28;19939;-43
2020/12/11 09:29:54;;;;;;;;;;;4.70;73.70;;;;;;5008628;28;19932;-42
2020/12/11 09:35:15;;;;;;;;;;;4.70;73.80;;;;;;4983965;28;19925;-46
2020/12/11 09:37:41;;;;;;;;;;;4.70;73.70;;;;;;5008011;28;19933;-44
2020/12/11 09:40:07;;;;;;;;;;;4.70;73.10;;;;;;5007530;28;19937;-44
2020/12/11 09:50:24;;;;;;;;;;;4.70;73.50;;;;;;5008377;28;19952;-42
2020/12/11 09:55:17;;;;;;;;;;;4.80;73.60;;;;;;5006581;28;19937;-44
2020/12/11 09:57:45;;;;;;;;;;;4.80;73.50;;;;;;5007037;28;19933;-43
2020/12/11 10:00:12;;;;;;;;;;;4.80;73.30;;;;;;5007166;28;19925;-42
2020/12/11 10:05:04;;;;;;;;;;;4.80;73.10;;;;;;5009482;28;19944;-45
2020/12/11 10:07:31;;;;;;;;;;;4.90;73.00;;;;;;5006614;28;19932;-44
2020/12/11 10:09:58;;;;;;;;;;;4.90;72.90;;;;;;5010158;28;19925;-44
2020/12/11 10:12:28;;;;;;;;;;;4.90;72.90;;;;;;5006031;28;20395;-45
2020/12/11 10:14:59;;;;;;;;;;;4.90;72.90;;;;;;5008885;28;19933;-44
2020/12/11 10:17:25;;;;;;;;;;;5.00;72.70;;;;;;5009092;28;19961;-44
2020/12/11 10:19:54;;;;;;;;;;;5.00;72.70;;;;;;5005116;28;19933;-45
2020/12/11 10:22:22;;;;;;;;;;;5.00;73.00;;;;;;5008365;28;19933;-44
2020/12/11 10:24:48;;;;;;;;;;;5.00;73.10;;;;;;5007116;28;19929;-44
2020/12/11 10:27:15;;;;;;;;;;;5.00;73.10;;;;;;5005782;28;19932;-45
2020/12/11 10:29:41;;;;;;;;;;;5.00;73.40;;;;;;5007379;28;19934;-45
2020/12/11 10:32:07;;;;;;;;;;;5.00;73.50;;;;;;5004513;28;20300;-44
2020/12/11 10:34:35;;;;;;;;;;;5.00;73.70;;;;;;5007985;28;19932;-44
2020/12/11 10:37:14;;;;;;;;;;;5.00;73.80;;;;;;5006445;28;19925;-43
2020/12/11 10:39:40;;;;;;;;;;;5.00;73.70;;;;;;5006870;28;19925;-44
2020/12/11 10:42:06;;;;;;;;;;;5.00;73.70;;;;;;5006850;28;19933;-43
2020/12/11 10:44:33;;;;;;;;;;;5.00;73.70;;;;;;5007108;28;19929;-44
2020/12/11 10:46:59;;;;;;;;;;;5.00;73.70;;;;;;5011137;28;19929;-45
2020/12/11 10:49:26;;;;;;;;;;;5.00;73.60;;;;;;5006687;28;19936;-45
2020/12/11 10:51:52;;;;;;;;;;;5.00;73.60;;;;;;5006396;28;19933;-45
2020/12/11 10:54:19;;;;;;;;;;;5.00;73.70;;;;;;5005812;28;20373;-45
2020/12/11 10:56:45;;;;;;;;;;;5.00;73.70;;;;;;5007263;28;20020;-45
2020/12/11 10:59:12;;;;;;;;;;;5.00;73.80;;;;;;5003596;28;19935;-45
2020/12/11 11:01:38;;;;;;;;;;;5.00;73.80;;;;;;5003187;28;23077;-44
2020/12/11 11:04:06;;;;;;;;;;;5.00;73.70;;;;;;5005383;28;19960;-43
2020/12/11 11:06:45;;;;;;;;;;;5.10;73.50;;;;;;5008227;28;19929;-44
2020/12/11 11:11:41;;;;;;;;;;;5.10;73.40;;;;;;5006721;28;19934;-46
2020/12/11 11:22:42;;;;;;;;;;;5.20;73.20;;;;;;5007714;28;19929;-42
2020/12/11 11:28:04;;;;;;;;;;;5.20;72.80;;;;;;4968661;28;20422;-45
2020/12/11 11:30:31;;;;;;;;;;;5.30;72.90;;;;;;5006831;28;19925;-46
2020/12/11 11:32:57;;;;;;;;;;;5.30;72.90;;;;;;5004771;28;19931;-45
2020/12/11 11:35:24;;;;;;;;;;;5.30;72.80;;;;;;5007653;28;19929;-45
2020/12/11 11:37:50;;;;;;;;;;;5.30;72.80;;;;;;4997716;28;19925;-46
2020/12/11 11:40:17;;;;;;;;;;;5.30;72.40;;;;;;5004554;28;20305;-41
2020/12/11 11:42:44;;;;;;;;;;;5.40;71.90;;;;;;5006849;28;19933;-44
2020/12/11 11:45:19;;;;;;;;;;;5.40;72.00;;;;;;5008016;28;19929;-44
2020/12/11 11:47:50;;;;;;;;;;;5.40;72.10;;;;;;5007617;28;19935;-46
2020/12/11 11:53:20;;;;;;;;;;;5.40;72.10;;;;;;4975951;28;19929;-42
2020/12/11 11:55:48;;;;;;;;;;;5.40;72.20;;;;;;5014547;28;19936;-46
2020/12/11 11:58:14;;;;;;;;;;;5.50;72.60;;;;;;5011597;28;19932;-45
2020/12/11 12:00:42;;;;;;;;;;;5.50;72.80;;;;;;5011705;28;20024;-44
2020/12/11 12:03:08;;;;;;;;;;;5.50;73.00;;;;;;5012995;28;19956;-43
2020/12/11 12:05:34;;;;;;;;;;;5.60;72.80;;;;;;5010709;28;19929;-46
2020/12/11 12:08:00;;;;;;;;;;;5.60;72.80;;;;;;5010846;28;20380;-46
2020/12/11 12:10:26;;;;;;;;;;;5.60;72.90;;;;;;4985840;28;19936;-45
2020/12/11 12:12:53;;;;;;;;;;;5.70;72.90;;;;;;5011019;28;19972;-44
2020/12/11 12:15:24;;;;;;;;;;;5.70;72.70;;;;;;5007535;28;20327;-46
2020/12/11 12:17:59;;;;;;;;;;;5.70;72.80;;;;;;5024952;28;19948;-44
2020/12/11 12:28:43;;;;;;;;;;;5.80;73.50;;;;;;5008955;28;19925;-45
2020/12/11 12:31:13;;;;;;;;;;;5.80;73.20;;;;;;5007285;28;20584;-44
2020/12/11 12:39:30;;;;;;;;;;;5.80;73.30;;;;;;5007938;28;19964;-44
2020/12/11 12:44:40;;;;;;;;;;;5.80;73.70;;;;;;5012081;28;19928;-45
2020/12/11 12:47:06;;;;;;;;;;;5.80;73.90;;;;;;5007194;28;24771;-45
2020/12/11 12:49:33;;;;;;;;;;;5.80;74.00;;;;;;5006956;28;20012;-44
2020/12/11 12:51:59;;;;;;;;;;;5.80;73.80;;;;;;5006785;28;19937;-45
2020/12/11 12:54:26;;;;;;;;;;;5.90;73.60;;;;;;5007237;28;19937;-45
2020/12/11 12:56:56;;;;;;;;;;;5.80;73.40;;;;;;5006971;28;19971;-44
2020/12/11 13:04:44;;;;;;;;;;;5.80;73.30;;;;;;5008298;28;20373;-45
2020/12/11 13:07:10;;;;;;;;;;;5.80;73.60;;;;;;5005583;28;20012;-43
2020/12/11 13:09:39;;;;;;;;;;;5.80;73.80;;;;;;5004379;28;20680;-44
2020/12/11 13:12:05;;;;;;;;;;;5.80;73.80;;;;;;5007499;28;19967;-45
2020/12/11 13:14:31;;;;;;;;;;;5.80;74.30;;;;;;5005528;28;20389;-46
2020/12/11 13:16:57;;;;;;;;;;;5.80;74.60;;;;;;5007491;28;19929;-44
2020/12/11 13:19:27;;;;;;;;;;;5.80;74.80;;;;;;5006165;28;19933;-46
2020/12/11 13:22:09;;;;;;;;;;;5.90;74.80;;;;;;5005114;28;20592;-44
2020/12/11 13:25:30;;;;;;;;;;;5.80;75.00;;;;;;5008594;28;19931;-45
2020/12/11 13:27:27;;;;;;;;;;;5.80;74.80;;;;;;5005774;28;19932;-45
2020/12/11 13:29:53;;;;;;;;;;;5.80;75.00;;;;;;5007839;28;19930;-43
2020/12/11 13:32:20;;;;;;;;;;;5.80;75.10;;;;;;5005997;28;19945;-45
2020/12/11 13:34:47;;;;;;;;;;;5.80;75.30;;;;;;5006075;28;19925;-45
2020/12/11 13:37:16;;;;;;;;;;;5.90;75.40;;;;;;5006177;28;19963;-43
2020/12/11 13:39:42;;;;;;;;;;;5.90;75.30;;;;;;5005900;28;19932;-43
2020/12/11 13:42:09;;;;;;;;;;;5.90;75.00;;;;;;5009786;28;20372;-44
2020/12/11 13:44:35;;;;;;;;;;;5.90;74.80;;;;;;5005204;28;19945;-45
2020/12/11 13:47:04;;;;;;;;;;;5.90;74.70;;;;;;5006437;28;20426;-44
2020/12/11 13:49:31;;;;;;;;;;;5.80;75.00;;;;;;5003632;28;19940;-44
2020/12/11 13:51:57;;;;;;;;;;;5.90;75.30;;;;;;5008120;28;19939;-44
2020/12/11 13:54:23;;;;;;;;;;;5.90;75.40;;;;;;5012231;28;19965;-45
2020/12/11 13:56:51;;;;;;;;;;;5.90;75.30;;;;;;5005531;28;19929;-44
2020/12/11 13:59:18;;;;;;;;;;;5.90;75.10;;;;;;5009125;28;19933;-44
2020/12/11 14:01:48;;;;;;;;;;;5.90;75.10;;;;;;4999360;28;19933;-44
2020/12/11 14:04:14;;;;;;;;;;;5.90;75.30;;;;;;5001297;28;23497;-43
2020/12/11 14:06:40;;;;;;;;;;;5.90;75.40;;;;;;5009027;28;20008;-45
2020/12/11 14:09:07;;;;;;;;;;;5.90;75.50;;;;;;5010105;28;19926;-43
2020/12/11 14:11:38;;;;;;;;;;;5.90;75.60;;;;;;5008110;28;19929;-44
2020/12/11 14:14:04;;;;;;;;;;;5.90;75.60;;;;;;5006833;28;20373;-45
2020/12/11 14:16:45;;;;;;;;;;;5.90;75.10;;;;;;5008393;28;19933;-44
2020/12/11 14:24:11;;;;;;;;;;;5.90;75.10;;;;;;5007693;28;20027;-44
2020/12/11 14:26:40;;;;;;;;;;;5.90;75.50;;;;;;5005283;28;19935;-43
2020/12/11 14:29:06;;;;;;;;;;;5.90;76.00;;;;;;5002215;28;19931;-43
2020/12/11 14:31:33;;;;;;;;;;;5.90;76.40;;;;;;5007301;28;19929;-43
2020/12/11 14:33:59;;;;;;;;;;;5.90;76.50;;;;;;5004785;28;19937;-44
2020/12/11 14:36:26;;;;;;;;;;;5.90;76.40;;;;;;5002254;28;22608;-44
2020/12/11 14:41:23;;;;;;;;;;;5.90;76.60;;;;;;5006682;28;19939;-45
2020/12/11 14:43:49;;;;;;;;;;;5.90;76.80;;;;;;5006430;28;20292;-44
2020/12/11 14:46:23;;;;;;;;;;;5.90;77.00;;;;;;5008909;28;19940;-45
2020/12/11 14:48:50;;;;;;;;;;;5.80;77.10;;;;;;5001641;28;19979;-45
2020/12/11 14:51:17;;;;;;;;;;;5.90;77.30;;;;;;5007233;28;20309;-44
2020/12/11 14:53:43;;;;;;;;;;;5.80;77.30;;;;;;5005739;28;19926;-44
2020/12/11 14:56:11;;;;;;;;;;;5.80;77.30;;;;;;5008747;28;20669;-43
2020/12/11 14:58:37;;;;;;;;;;;5.80;77.20;;;;;;5003043;28;19940;-44
2020/12/11 15:01:03;;;;;;;;;;;5.80;77.30;;;;;;5003733;28;21388;-43
2020/12/11 15:03:29;;;;;;;;;;;5.80;77.30;;;;;;5006249;28;19940;-44
2020/12/11 15:05:57;;;;;;;;;;;5.80;77.30;;;;;;5008357;28;19932;-44
2020/12/11 15:08:23;;;;;;;;;;;5.80;77.40;;;;;;5006131;28;20277;-44
2020/12/11 15:10:49;;;;;;;;;;;5.80;77.60;;;;;;5006960;28;19939;-44
2020/12/11 15:13:16;;;;;;;;;;;5.80;77.70;;;;;;5004836;28;19929;-43
2020/12/11 15:15:42;;;;;;;;;;;5.80;77.80;;;;;;5007986;28;19925;-43
2020/12/11 15:18:09;;;;;;;;;;;5.80;77.70;;;;;;5001496;28;19957;-43
2020/12/11 15:20:35;;;;;;;;;;;5.80;77.90;;;;;;5004239;28;19964;-44
2020/12/11 15:23:01;;;;;;;;;;;5.80;78.00;;;;;;5010902;28;19952;-45
2020/12/11 15:25:27;;;;;;;;;;;5.80;78.10;;;;;;5005794;28;20454;-45
2020/12/11 15:27:54;;;;;;;;;;;5.70;78.20;;;;;;5005464;28;19933;-45
2020/12/11 15:30:20;;;;;;;;;;;5.70;78.20;;;;;;5006051;28;20304;-45
2020/12/11 15:32:46;;;;;;;;;;;5.70;78.20;;;;;;5018514;28;19936;-45
2020/12/11 15:35:12;;;;;;;;;;;5.70;78.30;;;;;;5004821;28;20327;-45
2020/12/11 15:37:38;;;;;;;;;;;5.70;78.30;;;;;;5005221;28;20399;-43
2020/12/11 15:40:05;;;;;;;;;;;5.70;78.40;;;;;;5008926;28;19933;-45